sensor_id;sensor_type;location;lat;lon;timestamp;P1;durP1;ratioP1;P2;durP2;ratioP2
64875;SDS011;51369;49.862;9.908;2023-04-24T00:01:26;3.88;;;1.58;;
64875;SDS011;51369;49.862;9.908;2023-04-24T00:03:52;2.47;;;2.05;;
64875;SDS011;51369;49.862;9.908;2023-04-24T00:06:17;2.90;;;1.55;;
64875;SDS011;51369;49.862;9.908;2023-04-24T00:08:43;4.10;;;1.58;;
64875;SDS011;51369;49.862;9.908;2023-04-24T00:11:08;2.95;;;1.70;;
64875;SDS011;51369;49.862;9.908;2023-04-24T00:13:34;2.95;;;1.70;;
64875;SDS011;51369;49.862;9.908;2023-04-24T00:16:00;6.00;;;1.85;;
64875;SDS011;51369;49.862;9.908;2023-04-24T00:18:26;1.65;;;1.55;;
64875;SDS011;51369;49.862;9.908;2023-04-24T00:20:51;3.25;;;1.63;;
64875;SDS011;51369;49.862;9.908;2023-04-24T00:23:17;5.50;;;1.70;;
64875;SDS011;51369;49.862;9.908;2023-04-24T00:25:42;3.70;;;1.80;;
64875;SDS011;51369;49.862;9.908;2023-04-24T00:28:08;2.40;;;1.40;;
64875;SDS011;51369;49.862;9.908;2023-04-24T00:30:33;2.97;;;1.40;;
64875;SDS011;51369;49.862;9.908;2023-04-24T00:32:59;2.85;;;1.40;;
64875;SDS011;51369;49.862;9.908;2023-04-24T00:35:24;2.97;;;1.45;;
64875;SDS011;51369;49.862;9.908;2023-04-24T00:37:49;3.35;;;1.70;;
64875;SDS011;51369;49.862;9.908;2023-04-24T00:40:15;5.78;;;1.65;;
64875;SDS011;51369;49.862;9.908;2023-04-24T00:42:41;2.33;;;1.38;;
64875;SDS011;51369;49.862;9.908;2023-04-24T00:45:08;3.50;;;1.60;;
64875;SDS011;51369;49.862;9.908;2023-04-24T00:47:33;2.78;;;1.42;;
64875;SDS011;51369;49.862;9.908;2023-04-24T00:50:03;2.80;;;1.60;;
64875;SDS011;51369;49.862;9.908;2023-04-24T00:52:28;3.65;;;1.80;;
64875;SDS011;51369;49.862;9.908;2023-04-24T00:54:56;1.45;;;1.35;;
64875;SDS011;51369;49.862;9.908;2023-04-24T00:57:21;5.15;;;2.00;;
64875;SDS011;51369;49.862;9.908;2023-04-24T00:59:48;1.60;;;1.20;;
64875;SDS011;51369;49.862;9.908;2023-04-24T01:02:14;2.20;;;1.50;;
64875;SDS011;51369;49.862;9.908;2023-04-24T01:04:40;1.50;;;1.40;;
64875;SDS011;51369;49.862;9.908;2023-04-24T01:07:06;6.70;;;1.55;;
64875;SDS011;51369;49.862;9.908;2023-04-24T01:09:39;4.93;;;1.40;;
64875;SDS011;51369;49.862;9.908;2023-04-24T01:12:08;1.50;;;1.27;;
64875;SDS011;51369;49.862;9.908;2023-04-24T01:14:36;5.13;;;1.92;;
64875;SDS011;51369;49.862;9.908;2023-04-24T01:17:01;4.07;;;1.50;;
64875;SDS011;51369;49.862;9.908;2023-04-24T01:19:27;1.58;;;1.27;;
64875;SDS011;51369;49.862;9.908;2023-04-24T01:21:53;6.97;;;2.17;;
64875;SDS011;51369;49.862;9.908;2023-04-24T01:24:19;1.90;;;1.40;;
64875;SDS011;51369;49.862;9.908;2023-04-24T01:26:46;2.28;;;1.33;;
64875;SDS011;51369;49.862;9.908;2023-04-24T01:29:12;4.05;;;1.42;;
64875;SDS011;51369;49.862;9.908;2023-04-24T01:31:37;1.98;;;1.17;;
64875;SDS011;51369;49.862;9.908;2023-04-24T01:34:04;1.80;;;1.40;;
64875;SDS011;51369;49.862;9.908;2023-04-24T01:36:30;1.67;;;1.00;;
64875;SDS011;51369;49.862;9.908;2023-04-24T01:38:58;5.47;;;1.60;;
64875;SDS011;51369;49.862;9.908;2023-04-24T01:41:24;1.20;;;1.10;;
64875;SDS011;51369;49.862;9.908;2023-04-24T01:43:50;1.70;;;1.23;;
64875;SDS011;51369;49.862;9.908;2023-04-24T01:46:18;1.80;;;1.08;;
64875;SDS011;51369;49.862;9.908;2023-04-24T01:48:44;1.02;;;0.90;;
64875;SDS011;51369;49.862;9.908;2023-04-24T01:51:10;1.33;;;0.90;;
64875;SDS011;51369;49.862;9.908;2023-04-24T01:53:36;3.80;;;1.15;;
64875;SDS011;51369;49.862;9.908;2023-04-24T01:56:02;3.55;;;1.15;;
64875;SDS011;51369;49.862;9.908;2023-04-24T01:58:28;2.45;;;1.30;;
64875;SDS011;51369;49.862;9.908;2023-04-24T02:00:55;2.40;;;1.20;;
64875;SDS011;51369;49.862;9.908;2023-04-24T02:03:21;1.90;;;1.10;;
64875;SDS011;51369;49.862;9.908;2023-04-24T02:05:47;1.52;;;1.10;;
64875;SDS011;51369;49.862;9.908;2023-04-24T02:08:13;1.55;;;1.17;;
64875;SDS011;51369;49.862;9.908;2023-04-24T02:10:38;3.25;;;0.98;;
64875;SDS011;51369;49.862;9.908;2023-04-24T02:13:04;1.58;;;1.10;;
64875;SDS011;51369;49.862;9.908;2023-04-24T02:15:29;1.98;;;1.10;;
64875;SDS011;51369;49.862;9.908;2023-04-24T02:17:55;4.07;;;1.40;;
64875;SDS011;51369;49.862;9.908;2023-04-24T02:20:20;1.48;;;1.20;;
64875;SDS011;51369;49.862;9.908;2023-04-24T02:22:46;2.80;;;1.10;;
64875;SDS011;51369;49.862;9.908;2023-04-24T02:25:11;1.50;;;1.10;;
64875;SDS011;51369;49.862;9.908;2023-04-24T02:27:36;1.60;;;1.10;;
64875;SDS011;51369;49.862;9.908;2023-04-24T02:30:04;1.90;;;1.33;;
64875;SDS011;51369;49.862;9.908;2023-04-24T02:32:31;1.02;;;0.90;;
64875;SDS011;51369;49.862;9.908;2023-04-24T02:34:56;5.32;;;1.30;;
64875;SDS011;51369;49.862;9.908;2023-04-24T02:37:21;2.65;;;1.00;;
64875;SDS011;51369;49.862;9.908;2023-04-24T02:39:47;2.58;;;1.48;;
64875;SDS011;51369;49.862;9.908;2023-04-24T02:42:12;3.03;;;1.15;;
64875;SDS011;51369;49.862;9.908;2023-04-24T02:44:37;1.20;;;1.10;;
64875;SDS011;51369;49.862;9.908;2023-04-24T02:47:03;2.03;;;1.10;;
64875;SDS011;51369;49.862;9.908;2023-04-24T02:49:29;1.20;;;1.10;;
64875;SDS011;51369;49.862;9.908;2023-04-24T02:51:55;3.63;;;1.10;;
64875;SDS011;51369;49.862;9.908;2023-04-24T02:54:20;7.47;;;1.48;;
64875;SDS011;51369;49.862;9.908;2023-04-24T02:56:45;1.70;;;0.95;;
64875;SDS011;51369;49.862;9.908;2023-04-24T02:59:11;2.70;;;1.10;;
64875;SDS011;51369;49.862;9.908;2023-04-24T03:01:36;1.13;;;1.02;;
64875;SDS011;51369;49.862;9.908;2023-04-24T03:04:02;3.28;;;1.10;;
64875;SDS011;51369;49.862;9.908;2023-04-24T03:06:27;2.25;;;0.98;;
64875;SDS011;51369;49.862;9.908;2023-04-24T03:08:53;1.33;;;1.10;;
64875;SDS011;51369;49.862;9.908;2023-04-24T03:11:19;2.08;;;0.90;;
64875;SDS011;51369;49.862;9.908;2023-04-24T03:13:45;1.45;;;0.90;;
64875;SDS011;51369;49.862;9.908;2023-04-24T03:16:10;3.17;;;1.00;;
64875;SDS011;51369;49.862;9.908;2023-04-24T03:18:35;3.08;;;1.60;;
64875;SDS011;51369;49.862;9.908;2023-04-24T03:21:02;8.15;;;1.33;;
64875;SDS011;51369;49.862;9.908;2023-04-24T03:23:28;5.00;;;1.20;;
64875;SDS011;51369;49.862;9.908;2023-04-24T03:25:54;4.53;;;1.05;;
64875;SDS011;51369;49.862;9.908;2023-04-24T03:28:20;1.75;;;1.10;;
64875;SDS011;51369;49.862;9.908;2023-04-24T03:30:54;7.20;;;1.40;;
64875;SDS011;51369;49.862;9.908;2023-04-24T03:33:21;2.08;;;1.20;;
64875;SDS011;51369;49.862;9.908;2023-04-24T03:35:59;2.22;;;1.13;;
64875;SDS011;51369;49.862;9.908;2023-04-24T03:38:25;3.10;;;1.23;;
64875;SDS011;51369;49.862;9.908;2023-04-24T03:41:15;1.92;;;0.98;;
64875;SDS011;51369;49.862;9.908;2023-04-24T03:43:45;3.15;;;1.38;;
64875;SDS011;51369;49.862;9.908;2023-04-24T03:46:11;5.03;;;1.38;;
64875;SDS011;51369;49.862;9.908;2023-04-24T03:48:44;1.58;;;1.08;;
64875;SDS011;51369;49.862;9.908;2023-04-24T03:51:09;2.25;;;1.08;;
64875;SDS011;51369;49.862;9.908;2023-04-24T03:53:37;1.95;;;1.08;;
64875;SDS011;51369;49.862;9.908;2023-04-24T03:56:03;1.58;;;0.90;;
64875;SDS011;51369;49.862;9.908;2023-04-24T03:58:29;5.28;;;1.33;;
64875;SDS011;51369;49.862;9.908;2023-04-24T04:00:55;1.88;;;1.00;;
64875;SDS011;51369;49.862;9.908;2023-04-24T04:03:42;2.88;;;1.52;;
64875;SDS011;51369;49.862;9.908;2023-04-24T04:06:07;3.15;;;1.20;;
64875;SDS011;51369;49.862;9.908;2023-04-24T04:08:33;1.85;;;1.20;;
64875;SDS011;51369;49.862;9.908;2023-04-24T04:10:59;3.70;;;1.05;;
64875;SDS011;51369;49.862;9.908;2023-04-24T04:13:24;1.67;;;0.98;;
64875;SDS011;51369;49.862;9.908;2023-04-24T04:15:50;5.18;;;1.23;;
64875;SDS011;51369;49.862;9.908;2023-04-24T04:18:15;9.20;;;5.97;;
64875;SDS011;51369;49.862;9.908;2023-04-24T04:20:41;3.45;;;1.90;;
64875;SDS011;51369;49.862;9.908;2023-04-24T04:23:07;4.07;;;1.17;;
64875;SDS011;51369;49.862;9.908;2023-04-24T04:25:42;2.53;;;1.30;;
64875;SDS011;51369;49.862;9.908;2023-04-24T04:28:07;5.38;;;1.33;;
64875;SDS011;51369;49.862;9.908;2023-04-24T04:30:33;2.53;;;1.13;;
64875;SDS011;51369;49.862;9.908;2023-04-24T04:33:02;1.70;;;1.10;;
64875;SDS011;51369;49.862;9.908;2023-04-24T04:35:29;1.23;;;1.00;;
64875;SDS011;51369;49.862;9.908;2023-04-24T04:37:55;2.03;;;0.88;;
64875;SDS011;51369;49.862;9.908;2023-04-24T04:40:36;2.92;;;1.10;;
64875;SDS011;51369;49.862;9.908;2023-04-24T04:43:04;3.03;;;1.40;;
64875;SDS011;51369;49.862;9.908;2023-04-24T04:45:37;2.72;;;1.00;;
64875;SDS011;51369;49.862;9.908;2023-04-24T04:48:33;1.42;;;1.20;;
64875;SDS011;51369;49.862;9.908;2023-04-24T04:51:00;3.45;;;1.50;;
64875;SDS011;51369;49.862;9.908;2023-04-24T04:53:27;5.45;;;1.10;;
64875;SDS011;51369;49.862;9.908;2023-04-24T04:55:52;2.35;;;1.52;;
64875;SDS011;51369;49.862;9.908;2023-04-24T04:58:19;4.63;;;1.67;;
64875;SDS011;51369;49.862;9.908;2023-04-24T05:00:47;1.63;;;1.40;;
64875;SDS011;51369;49.862;9.908;2023-04-24T05:03:22;1.95;;;1.58;;
64875;SDS011;51369;49.862;9.908;2023-04-24T05:05:59;2.25;;;1.70;;
64875;SDS011;51369;49.862;9.908;2023-04-24T05:08:26;3.63;;;1.85;;
64875;SDS011;51369;49.862;9.908;2023-04-24T05:10:52;2.45;;;1.45;;
64875;SDS011;51369;49.862;9.908;2023-04-24T05:13:17;4.60;;;1.63;;
64875;SDS011;51369;49.862;9.908;2023-04-24T05:15:43;3.72;;;1.48;;
64875;SDS011;51369;49.862;9.908;2023-04-24T05:18:08;2.20;;;1.42;;
64875;SDS011;51369;49.862;9.908;2023-04-24T05:20:34;4.85;;;1.70;;
64875;SDS011;51369;49.862;9.908;2023-04-24T05:22:59;3.50;;;2.33;;
64875;SDS011;51369;49.862;9.908;2023-04-24T05:25:26;2.97;;;1.40;;
64875;SDS011;51369;49.862;9.908;2023-04-24T05:27:59;2.05;;;1.50;;
64875;SDS011;51369;49.862;9.908;2023-04-24T05:30:24;1.98;;;1.58;;
64875;SDS011;51369;49.862;9.908;2023-04-24T05:32:50;1.85;;;1.50;;
64875;SDS011;51369;49.862;9.908;2023-04-24T05:35:16;3.13;;;1.48;;
64875;SDS011;51369;49.862;9.908;2023-04-24T05:37:41;2.05;;;1.40;;
64875;SDS011;51369;49.862;9.908;2023-04-24T05:40:08;1.92;;;1.50;;
64875;SDS011;51369;49.862;9.908;2023-04-24T05:42:34;3.65;;;1.40;;
64875;SDS011;51369;49.862;9.908;2023-04-24T05:44:59;3.65;;;1.27;;
64875;SDS011;51369;49.862;9.908;2023-04-24T05:47:25;2.53;;;1.80;;
64875;SDS011;51369;49.862;9.908;2023-04-24T05:49:51;3.20;;;1.90;;
64875;SDS011;51369;49.862;9.908;2023-04-24T05:52:18;2.00;;;1.80;;
64875;SDS011;51369;49.862;9.908;2023-04-24T05:54:44;6.38;;;1.80;;
64875;SDS011;51369;49.862;9.908;2023-04-24T05:57:12;3.22;;;1.85;;
64875;SDS011;51369;49.862;9.908;2023-04-24T05:59:48;2.55;;;1.83;;
64875;SDS011;51369;49.862;9.908;2023-04-24T06:02:15;2.95;;;1.90;;
64875;SDS011;51369;49.862;9.908;2023-04-24T06:04:40;2.20;;;2.00;;
64875;SDS011;51369;49.862;9.908;2023-04-24T06:07:06;2.42;;;1.88;;
64875;SDS011;51369;49.862;9.908;2023-04-24T06:09:32;2.92;;;1.73;;
64875;SDS011;51369;49.862;9.908;2023-04-24T06:11:57;2.35;;;1.95;;
64875;SDS011;51369;49.862;9.908;2023-04-24T06:14:28;2.00;;;1.90;;
64875;SDS011;51369;49.862;9.908;2023-04-24T06:17:23;2.72;;;1.83;;
64875;SDS011;51369;49.862;9.908;2023-04-24T06:19:49;3.75;;;1.92;;
64875;SDS011;51369;49.862;9.908;2023-04-24T06:22:16;3.25;;;2.10;;
64875;SDS011;51369;49.862;9.908;2023-04-24T06:24:41;2.35;;;1.95;;
64875;SDS011;51369;49.862;9.908;2023-04-24T06:27:07;1.80;;;1.70;;
64875;SDS011;51369;49.862;9.908;2023-04-24T06:29:33;2.83;;;2.20;;
64875;SDS011;51369;49.862;9.908;2023-04-24T06:31:58;4.20;;;2.33;;
64875;SDS011;51369;49.862;9.908;2023-04-24T06:34:24;2.55;;;2.15;;
64875;SDS011;51369;49.862;9.908;2023-04-24T06:36:49;4.90;;;2.22;;
64875;SDS011;51369;49.862;9.908;2023-04-24T06:39:15;3.80;;;1.98;;
64875;SDS011;51369;49.862;9.908;2023-04-24T06:41:40;3.83;;;2.45;;
64875;SDS011;51369;49.862;9.908;2023-04-24T06:44:14;2.30;;;2.10;;
64875;SDS011;51369;49.862;9.908;2023-04-24T06:46:40;3.05;;;2.00;;
64875;SDS011;51369;49.862;9.908;2023-04-24T06:49:06;6.47;;;2.08;;
64875;SDS011;51369;49.862;9.908;2023-04-24T06:51:31;4.50;;;2.47;;
64875;SDS011;51369;49.862;9.908;2023-04-24T06:53:58;4.20;;;2.60;;
64875;SDS011;51369;49.862;9.908;2023-04-24T06:56:23;5.65;;;2.50;;
64875;SDS011;51369;49.862;9.908;2023-04-24T06:58:49;4.25;;;2.13;;
64875;SDS011;51369;49.862;9.908;2023-04-24T07:01:14;3.15;;;2.42;;
64875;SDS011;51369;49.862;9.908;2023-04-24T07:03:40;2.67;;;2.28;;
64875;SDS011;51369;49.862;9.908;2023-04-24T07:06:05;2.72;;;2.50;;
64875;SDS011;51369;49.862;9.908;2023-04-24T07:08:31;5.25;;;3.13;;
64875;SDS011;51369;49.862;9.908;2023-04-24T07:10:58;4.13;;;2.65;;
64875;SDS011;51369;49.862;9.908;2023-04-24T07:13:23;3.10;;;2.55;;
64875;SDS011;51369;49.862;9.908;2023-04-24T07:15:49;3.75;;;2.72;;
64875;SDS011;51369;49.862;9.908;2023-04-24T07:18:16;3.10;;;2.40;;
64875;SDS011;51369;49.862;9.908;2023-04-24T07:20:41;4.82;;;2.50;;
64875;SDS011;51369;49.862;9.908;2023-04-24T07:23:07;3.08;;;2.60;;
64875;SDS011;51369;49.862;9.908;2023-04-24T07:25:33;3.00;;;2.70;;
64875;SDS011;51369;49.862;9.908;2023-04-24T07:27:58;3.13;;;2.72;;
64875;SDS011;51369;49.862;9.908;2023-04-24T07:30:24;3.78;;;2.45;;
64875;SDS011;51369;49.862;9.908;2023-04-24T07:32:49;6.28;;;2.58;;
64875;SDS011;51369;49.862;9.908;2023-04-24T07:35:15;3.35;;;2.75;;
64875;SDS011;51369;49.862;9.908;2023-04-24T07:37:40;8.00;;;3.00;;
64875;SDS011;51369;49.862;9.908;2023-04-24T07:40:10;4.38;;;2.92;;
64875;SDS011;51369;49.862;9.908;2023-04-24T07:42:39;7.00;;;3.22;;
64875;SDS011;51369;49.862;9.908;2023-04-24T07:45:05;5.63;;;3.00;;
64875;SDS011;51369;49.862;9.908;2023-04-24T07:47:31;4.88;;;3.00;;
64875;SDS011;51369;49.862;9.908;2023-04-24T07:49:57;9.00;;;2.67;;
64875;SDS011;51369;49.862;9.908;2023-04-24T07:52:23;3.22;;;2.92;;
64875;SDS011;51369;49.862;9.908;2023-04-24T07:54:48;3.08;;;2.75;;
64875;SDS011;51369;49.862;9.908;2023-04-24T07:57:15;4.32;;;2.85;;
64875;SDS011;51369;49.862;9.908;2023-04-24T07:59:40;3.20;;;2.90;;
64875;SDS011;51369;49.862;9.908;2023-04-24T08:02:06;4.80;;;2.90;;
64875;SDS011;51369;49.862;9.908;2023-04-24T08:04:31;2.95;;;2.65;;
64875;SDS011;51369;49.862;9.908;2023-04-24T08:06:57;5.35;;;2.90;;
64875;SDS011;51369;49.862;9.908;2023-04-24T08:09:22;3.78;;;2.88;;
64875;SDS011;51369;49.862;9.908;2023-04-24T08:11:48;3.03;;;2.60;;
64875;SDS011;51369;49.862;9.908;2023-04-24T08:14:13;7.18;;;3.60;;
64875;SDS011;51369;49.862;9.908;2023-04-24T08:16:40;5.50;;;2.78;;
64875;SDS011;51369;49.862;9.908;2023-04-24T08:19:05;4.60;;;3.00;;
64875;SDS011;51369;49.862;9.908;2023-04-24T08:21:31;3.58;;;3.15;;
64875;SDS011;51369;49.862;9.908;2023-04-24T08:23:57;4.32;;;3.45;;
64875;SDS011;51369;49.862;9.908;2023-04-24T08:26:22;4.40;;;3.17;;
64875;SDS011;51369;49.862;9.908;2023-04-24T08:28:47;8.13;;;3.50;;
64875;SDS011;51369;49.862;9.908;2023-04-24T08:31:13;5.07;;;3.33;;
64875;SDS011;51369;49.862;9.908;2023-04-24T08:33:38;3.30;;;3.00;;
64875;SDS011;51369;49.862;9.908;2023-04-24T08:36:04;3.08;;;2.75;;
64875;SDS011;51369;49.862;9.908;2023-04-24T08:38:30;4.65;;;3.30;;
64875;SDS011;51369;49.862;9.908;2023-04-24T08:40:58;5.18;;;3.20;;
64875;SDS011;51369;49.862;9.908;2023-04-24T08:43:24;3.60;;;2.63;;
64875;SDS011;51369;49.862;9.908;2023-04-24T08:45:51;4.28;;;2.65;;
64875;SDS011;51369;49.862;9.908;2023-04-24T08:48:17;4.38;;;2.53;;
64875;SDS011;51369;49.862;9.908;2023-04-24T08:50:43;3.50;;;2.30;;
64875;SDS011;51369;49.862;9.908;2023-04-24T08:53:10;3.45;;;2.60;;
64875;SDS011;51369;49.862;9.908;2023-04-24T08:55:36;4.72;;;2.42;;
64875;SDS011;51369;49.862;9.908;2023-04-24T08:58:02;2.80;;;2.42;;
64875;SDS011;51369;49.862;9.908;2023-04-24T09:00:28;3.50;;;2.60;;
64875;SDS011;51369;49.862;9.908;2023-04-24T09:02:54;4.75;;;2.10;;
64875;SDS011;51369;49.862;9.908;2023-04-24T09:05:20;4.28;;;2.00;;
64875;SDS011;51369;49.862;9.908;2023-04-24T09:07:49;4.32;;;2.00;;
64875;SDS011;51369;49.862;9.908;2023-04-24T09:10:22;3.40;;;1.92;;
64875;SDS011;51369;49.862;9.908;2023-04-24T09:12:52;3.70;;;2.35;;
64875;SDS011;51369;49.862;9.908;2023-04-24T09:15:18;2.10;;;1.90;;
64875;SDS011;51369;49.862;9.908;2023-04-24T09:17:45;2.45;;;2.00;;
64875;SDS011;51369;49.862;9.908;2023-04-24T09:20:11;4.60;;;2.20;;
64875;SDS011;51369;49.862;9.908;2023-04-24T09:22:37;4.00;;;1.90;;
64875;SDS011;51369;49.862;9.908;2023-04-24T09:25:03;2.92;;;2.38;;
64875;SDS011;51369;49.862;9.908;2023-04-24T09:27:30;2.08;;;1.92;;
64875;SDS011;51369;49.862;9.908;2023-04-24T09:29:56;2.30;;;1.95;;
64875;SDS011;51369;49.862;9.908;2023-04-24T09:32:23;2.00;;;1.80;;
64875;SDS011;51369;49.862;9.908;2023-04-24T09:37:52;4.93;;;2.25;;
64875;SDS011;51369;49.862;9.908;2023-04-24T09:40:18;2.10;;;1.73;;
64875;SDS011;51369;49.862;9.908;2023-04-24T09:42:46;2.15;;;1.90;;
64875;SDS011;51369;49.862;9.908;2023-04-24T09:45:17;2.20;;;2.00;;
64875;SDS011;51369;49.862;9.908;2023-04-24T09:47:43;3.35;;;1.77;;
64875;SDS011;51369;49.862;9.908;2023-04-24T09:50:12;1.85;;;1.60;;
64875;SDS011;51369;49.862;9.908;2023-04-24T09:52:40;2.28;;;1.92;;
64875;SDS011;51369;49.862;9.908;2023-04-24T09:55:10;2.33;;;2.10;;
64875;SDS011;51369;49.862;9.908;2023-04-24T09:57:46;4.82;;;1.83;;
64875;SDS011;51369;49.862;9.908;2023-04-24T10:00:12;2.00;;;1.80;;
64875;SDS011;51369;49.862;9.908;2023-04-24T10:02:38;2.30;;;1.70;;
64875;SDS011;51369;49.862;9.908;2023-04-24T10:05:04;3.72;;;2.00;;
64875;SDS011;51369;49.862;9.908;2023-04-24T10:07:32;2.30;;;2.10;;
64875;SDS011;51369;49.862;9.908;2023-04-24T10:09:58;5.03;;;2.17;;
64875;SDS011;51369;49.862;9.908;2023-04-24T10:12:24;3.10;;;1.80;;
64875;SDS011;51369;49.862;9.908;2023-04-24T10:14:50;4.53;;;1.92;;
64875;SDS011;51369;49.862;9.908;2023-04-24T10:17:16;2.40;;;2.20;;
64875;SDS011;51369;49.862;9.908;2023-04-24T10:19:42;3.83;;;2.15;;
64875;SDS011;51369;49.862;9.908;2023-04-24T10:22:08;2.30;;;1.95;;
64875;SDS011;51369;49.862;9.908;2023-04-24T10:24:35;2.40;;;2.10;;
64875;SDS011;51369;49.862;9.908;2023-04-24T10:27:02;2.72;;;2.05;;
64875;SDS011;51369;49.862;9.908;2023-04-24T10:29:28;2.78;;;2.58;;
64875;SDS011;51369;49.862;9.908;2023-04-24T10:31:56;4.10;;;2.25;;
64875;SDS011;51369;49.862;9.908;2023-04-24T10:34:22;2.92;;;2.20;;
64875;SDS011;51369;49.862;9.908;2023-04-24T10:36:50;3.45;;;2.58;;
64875;SDS011;51369;49.862;9.908;2023-04-24T10:39:17;2.78;;;2.53;;
64875;SDS011;51369;49.862;9.908;2023-04-24T10:41:44;4.28;;;2.40;;
64875;SDS011;51369;49.862;9.908;2023-04-24T10:44:12;3.78;;;2.10;;
64875;SDS011;51369;49.862;9.908;2023-04-24T10:46:43;4.20;;;2.08;;
64875;SDS011;51369;49.862;9.908;2023-04-24T10:49:18;2.92;;;2.72;;
64875;SDS011;51369;49.862;9.908;2023-04-24T10:51:53;3.88;;;2.60;;
64875;SDS011;51369;49.862;9.908;2023-04-24T10:54:23;2.83;;;2.40;;
64875;SDS011;51369;49.862;9.908;2023-04-24T10:56:49;2.97;;;2.72;;
64875;SDS011;51369;49.862;9.908;2023-04-24T10:59:25;5.28;;;2.67;;
64875;SDS011;51369;49.862;9.908;2023-04-24T11:01:53;3.92;;;2.60;;
64875;SDS011;51369;49.862;9.908;2023-04-24T11:04:29;3.15;;;2.55;;
64875;SDS011;51369;49.862;9.908;2023-04-24T11:06:56;2.88;;;2.58;;
64875;SDS011;51369;49.862;9.908;2023-04-24T11:09:22;4.32;;;2.22;;
64875;SDS011;51369;49.862;9.908;2023-04-24T11:11:51;2.88;;;2.58;;
64875;SDS011;51369;49.862;9.908;2023-04-24T11:14:28;3.90;;;2.88;;
64875;SDS011;51369;49.862;9.908;2023-04-24T11:16:54;2.20;;;2.00;;
64875;SDS011;51369;49.862;9.908;2023-04-24T11:19:23;3.75;;;2.38;;
64875;SDS011;51369;49.862;9.908;2023-04-24T11:22:13;3.30;;;2.58;;
64875;SDS011;51369;49.862;9.908;2023-04-24T11:24:40;2.30;;;2.10;;
64875;SDS011;51369;49.862;9.908;2023-04-24T11:27:21;3.70;;;2.33;;
64875;SDS011;51369;49.862;9.908;2023-04-24T11:29:47;3.08;;;2.78;;
64875;SDS011;51369;49.862;9.908;2023-04-24T11:34:51;3.05;;;2.53;;
64875;SDS011;51369;49.862;9.908;2023-04-24T11:37:18;5.85;;;3.03;;
64875;SDS011;51369;49.862;9.908;2023-04-24T11:39:44;2.97;;;2.63;;
64875;SDS011;51369;49.862;9.908;2023-04-24T11:42:09;3.25;;;2.60;;
64875;SDS011;51369;49.862;9.908;2023-04-24T11:44:35;5.35;;;2.47;;
64875;SDS011;51369;49.862;9.908;2023-04-24T11:47:07;4.82;;;2.30;;
64875;SDS011;51369;49.862;9.908;2023-04-24T11:49:33;3.08;;;2.78;;
64875;SDS011;51369;49.862;9.908;2023-04-24T11:52:01;2.35;;;2.15;;
64875;SDS011;51369;49.862;9.908;2023-04-24T11:54:27;2.88;;;2.22;;
64875;SDS011;51369;49.862;9.908;2023-04-24T11:56:52;2.47;;;2.28;;
64875;SDS011;51369;49.862;9.908;2023-04-24T11:59:18;3.63;;;1.98;;
64875;SDS011;51369;49.862;9.908;2023-04-24T12:01:44;2.10;;;1.98;;
64875;SDS011;51369;49.862;9.908;2023-04-24T12:04:10;3.03;;;1.70;;
64875;SDS011;51369;49.862;9.908;2023-04-24T12:06:36;2.22;;;2.03;;
64875;SDS011;51369;49.862;9.908;2023-04-24T12:09:02;5.43;;;1.60;;
64875;SDS011;51369;49.862;9.908;2023-04-24T12:11:27;2.85;;;1.80;;
64875;SDS011;51369;49.862;9.908;2023-04-24T12:13:52;1.85;;;1.67;;
64875;SDS011;51369;49.862;9.908;2023-04-24T12:16:18;3.88;;;2.35;;
64875;SDS011;51369;49.862;9.908;2023-04-24T12:18:44;1.80;;;1.70;;
64875;SDS011;51369;49.862;9.908;2023-04-24T12:21:17;2.45;;;1.77;;
64875;SDS011;51369;49.862;9.908;2023-04-24T12:23:43;4.03;;;2.10;;
64875;SDS011;51369;49.862;9.908;2023-04-24T12:26:10;2.42;;;1.70;;
64875;SDS011;51369;49.862;9.908;2023-04-24T12:28:37;2.58;;;2.00;;
64875;SDS011;51369;49.862;9.908;2023-04-24T12:31:03;2.30;;;1.70;;
64875;SDS011;51369;49.862;9.908;2023-04-24T12:33:34;1.90;;;1.70;;
64875;SDS011;51369;49.862;9.908;2023-04-24T12:36:00;3.10;;;2.10;;
64875;SDS011;51369;49.862;9.908;2023-04-24T12:38:27;4.47;;;1.85;;
64875;SDS011;51369;49.862;9.908;2023-04-24T12:41:05;2.53;;;1.50;;
64875;SDS011;51369;49.862;9.908;2023-04-24T12:43:38;2.45;;;1.92;;
64875;SDS011;51369;49.862;9.908;2023-04-24T12:46:16;5.13;;;1.85;;
64875;SDS011;51369;49.862;9.908;2023-04-24T12:48:41;2.45;;;1.67;;
64875;SDS011;51369;49.862;9.908;2023-04-24T12:51:07;1.95;;;1.45;;
64875;SDS011;51369;49.862;9.908;2023-04-24T12:53:32;2.53;;;1.70;;
64875;SDS011;51369;49.862;9.908;2023-04-24T12:55:58;1.58;;;1.48;;
64875;SDS011;51369;49.862;9.908;2023-04-24T12:58:23;1.60;;;1.45;;
64875;SDS011;51369;49.862;9.908;2023-04-24T13:00:49;3.38;;;1.98;;
64875;SDS011;51369;49.862;9.908;2023-04-24T13:03:15;2.20;;;2.00;;
64875;SDS011;51369;49.862;9.908;2023-04-24T13:05:42;5.95;;;2.47;;
64875;SDS011;51369;49.862;9.908;2023-04-24T13:08:08;2.30;;;1.98;;
64875;SDS011;51369;49.862;9.908;2023-04-24T13:10:34;2.17;;;1.98;;
64875;SDS011;51369;49.862;9.908;2023-04-24T13:12:59;2.65;;;1.90;;
64875;SDS011;51369;49.862;9.908;2023-04-24T13:15:25;3.55;;;2.55;;
64875;SDS011;51369;49.862;9.908;2023-04-24T13:17:50;4.20;;;2.75;;
64875;SDS011;51369;49.862;9.908;2023-04-24T13:20:16;2.85;;;2.25;;
64875;SDS011;51369;49.862;9.908;2023-04-24T13:22:42;4.20;;;2.38;;
64875;SDS011;51369;49.862;9.908;2023-04-24T13:25:07;3.10;;;2.40;;
64875;SDS011;51369;49.862;9.908;2023-04-24T13:27:34;4.05;;;2.55;;
64875;SDS011;51369;49.862;9.908;2023-04-24T13:30:00;4.65;;;2.80;;
64875;SDS011;51369;49.862;9.908;2023-04-24T13:32:25;4.15;;;2.53;;
64875;SDS011;51369;49.862;9.908;2023-04-24T13:34:51;5.38;;;3.22;;
64875;SDS011;51369;49.862;9.908;2023-04-24T13:37:17;3.72;;;2.67;;
64875;SDS011;51369;49.862;9.908;2023-04-24T13:39:42;4.15;;;2.75;;
64875;SDS011;51369;49.862;9.908;2023-04-24T13:42:08;3.25;;;2.60;;
64875;SDS011;51369;49.862;9.908;2023-04-24T13:44:33;2.75;;;2.40;;
64875;SDS011;51369;49.862;9.908;2023-04-24T13:46:59;3.03;;;2.30;;
64875;SDS011;51369;49.862;9.908;2023-04-24T13:49:25;3.03;;;2.72;;
64875;SDS011;51369;49.862;9.908;2023-04-24T13:51:51;3.22;;;2.30;;
64875;SDS011;51369;49.862;9.908;2023-04-24T13:54:18;4.70;;;3.28;;
64875;SDS011;51369;49.862;9.908;2023-04-24T13:56:44;3.05;;;2.75;;
64875;SDS011;51369;49.862;9.908;2023-04-24T13:59:09;4.82;;;2.50;;
64875;SDS011;51369;49.862;9.908;2023-04-24T14:01:37;4.07;;;3.10;;
64875;SDS011;51369;49.862;9.908;2023-04-24T14:04:02;3.10;;;2.60;;
64875;SDS011;51369;49.862;9.908;2023-04-24T14:06:27;2.58;;;2.38;;
64875;SDS011;51369;49.862;9.908;2023-04-24T14:08:53;2.63;;;2.20;;
64875;SDS011;51369;49.862;9.908;2023-04-24T14:11:19;2.35;;;2.15;;
64875;SDS011;51369;49.862;9.908;2023-04-24T14:13:45;3.65;;;2.92;;
64875;SDS011;51369;49.862;9.908;2023-04-24T14:16:11;5.13;;;2.80;;
64875;SDS011;51369;49.862;9.908;2023-04-24T14:18:36;2.78;;;2.40;;
64875;SDS011;51369;49.862;9.908;2023-04-24T14:21:03;5.15;;;2.92;;
64875;SDS011;51369;49.862;9.908;2023-04-24T14:23:29;3.90;;;3.00;;
64875;SDS011;51369;49.862;9.908;2023-04-24T14:25:55;3.67;;;2.80;;
64875;SDS011;51369;49.862;9.908;2023-04-24T14:28:21;3.45;;;2.97;;
64875;SDS011;51369;49.862;9.908;2023-04-24T14:30:47;8.40;;;3.03;;
64875;SDS011;51369;49.862;9.908;2023-04-24T14:33:13;5.20;;;3.17;;
64875;SDS011;51369;49.862;9.908;2023-04-24T14:35:42;3.38;;;2.78;;
64875;SDS011;51369;49.862;9.908;2023-04-24T14:38:08;5.20;;;3.72;;
64875;SDS011;51369;49.862;9.908;2023-04-24T14:40:34;5.43;;;4.22;;
64875;SDS011;51369;49.862;9.908;2023-04-24T14:42:59;3.58;;;2.67;;
64875;SDS011;51369;49.862;9.908;2023-04-24T14:45:25;2.85;;;2.40;;
64875;SDS011;51369;49.862;9.908;2023-04-24T14:47:51;2.70;;;2.45;;
64875;SDS011;51369;49.862;9.908;2023-04-24T14:50:17;4.78;;;2.42;;
64875;SDS011;51369;49.862;9.908;2023-04-24T14:52:43;5.18;;;2.47;;